Time;durP1;ratioP1;P1;durP2;ratioP2;P2;SDS_P1;SDS_P2;PMS_P1;PMS_P2;Temp;Humidity;BMP_temperature;BMP_pressure;BME280_temperature;BME280_humidity;BME280_pressure;Samples;Min_cycle;Max_cycle;Signal;HPM_P1;HPM_P2
2023/08/03 00:00:23;;;;;;;9.80;8.90;;;;;;;-128.00;-1.00;-1.00;102147;1259;1005046;-73
2023/08/03 00:02:50;;;;;;;9.60;8.20;;;;;;;-128.00;-1.00;-1.00;102278;1253;1004151;-72
2023/08/03 00:05:19;;;;;;;9.70;8.70;;;;;;;-128.00;-1.00;-1.00;102444;1256;1004461;-72
2023/08/03 00:07:47;;;;;;;9.70;8.30;;;;;;;-128.00;-1.00;-1.00;102160;1252;1061568;-71
2023/08/03 00:10:16;;;;;;;9.50;8.20;;;;;;;-128.00;-1.00;-1.00;104382;1252;1004550;-71
2023/08/03 00:12:43;;;;;;;9.50;8.60;;;;;;;-128.00;-1.00;-1.00;103566;1253;1046857;-69
2023/08/03 00:15:10;;;;;;;12.70;9.10;;;;;;;-128.00;-1.00;-1.00;102285;1260;1004414;-71
2023/08/03 00:17:37;;;;;;;9.70;8.80;;;;;;;-128.00;-1.00;-1.00;102239;1256;1003948;-70
2023/08/03 00:20:05;;;;;;;12.10;8.90;;;;;;;-128.00;-1.00;-1.00;102104;1259;1004690;-73
2023/08/03 00:22:32;;;;;;;11.60;9.00;;;;;;;-128.00;-1.00;-1.00;102201;1254;1004077;-73
2023/08/03 00:25:00;;;;;;;10.70;8.90;;;;;;;-128.00;-1.00;-1.00;102168;1259;1004649;-71
2023/08/03 00:27:27;;;;;;;11.10;9.50;;;;;;;-128.00;-1.00;-1.00;102184;1258;1003998;-71
2023/08/03 00:29:54;;;;;;;11.30;9.40;;;;;;;-128.00;-1.00;-1.00;102293;1254;1004819;-72
2023/08/03 00:32:21;;;;;;;11.30;10.20;;;;;;;-128.00;-1.00;-1.00;102302;1256;1004754;-70
2023/08/03 00:34:48;;;;;;;10.10;9.20;;;;;;;-128.00;-1.00;-1.00;101889;1254;1004099;-72
2023/08/03 00:38:53;;;;;;;12.00;10.80;;;;;;;19.41;100.00;98891.94;102770;1295;600181;-72
2023/08/03 00:41:20;;;;;;;11.80;10.70;;;;;;;19.39;100.00;98897.61;105351;1267;61677;-70
2023/08/03 00:43:49;;;;;;;11.70;10.50;;;;;;;19.43;100.00;98902.80;105157;1269;59377;-70
2023/08/03 00:46:17;;;;;;;11.40;10.20;;;;;;;19.44;100.00;98900.49;104995;1271;70813;-70
2023/08/03 00:48:45;;;;;;;11.60;10.40;;;;;;;19.50;100.00;98902.46;104596;1269;70164;-71
2023/08/03 00:51:12;;;;;;;12.70;11.40;;;;;;;19.57;100.00;98898.84;104457;1271;74385;-69
2023/08/03 00:53:40;;;;;;;12.60;11.10;;;;;;;19.57;100.00;98901.71;104563;1266;323478;-69
2023/08/03 00:56:08;;;;;;;12.70;11.20;;;;;;;19.54;100.00;98898.59;104477;1273;59321;-71
2023/08/03 00:58:35;;;;;;;11.50;10.50;;;;;;;19.52;100.00;98901.09;105069;1263;72275;-71
2023/08/03 01:01:04;;;;;;;10.60;9.50;;;;;;;19.51;100.00;98905.16;105174;1267;69179;-71
2023/08/03 01:03:31;;;;;;;11.80;10.50;;;;;;;19.51;100.00;98901.71;105396;1264;74729;-73
2023/08/03 01:05:59;;;;;;;12.30;10.60;;;;;;;19.51;100.00;98899.84;105364;1259;60444;-73
2023/08/03 01:08:27;;;;;;;11.30;10.20;;;;;;;19.57;100.00;98899.81;105670;1262;60128;-71
2023/08/03 01:10:55;;;;;;;10.60;9.70;;;;;;;19.68;100.00;98899.45;106136;1260;73217;-71
2023/08/03 01:13:23;;;;;;;11.80;10.20;;;;;;;19.79;100.00;98900.86;106428;1254;70262;-71
2023/08/03 01:15:50;;;;;;;11.40;10.20;;;;;;;19.87;100.00;98900.10;105553;1254;72722;-75
2023/08/03 01:18:18;;;;;;;12.50;10.90;;;;;;;-98.42;19.20;19779.22;102607;1260;1002712;-73
2023/08/03 01:20:46;;;;;;;12.60;10.60;;;;;;;-128.00;-1.00;-1.00;101991;1254;1046665;-72
2023/08/03 01:23:14;;;;;;;11.30;10.10;;;;;;;-128.00;-1.00;-1.00;102005;1260;1004370;-72
2023/08/03 01:25:41;;;;;;;11.30;10.20;;;;;;;-128.00;-1.00;-1.00;101895;1254;1003945;-73
2023/08/03 01:28:09;;;;;;;11.50;10.40;;;;;;;-128.00;-1.00;-1.00;102054;1254;1004893;-72
2023/08/03 01:30:36;;;;;;;14.40;10.50;;;;;;;-128.00;-1.00;-1.00;101967;1254;1004611;-72
2023/08/03 01:33:04;;;;;;;11.30;10.20;;;;;;;-128.00;-1.00;-1.00;102059;1255;1007836;-72
2023/08/03 01:35:32;;;;;;;11.90;10.30;;;;;;;-128.00;-1.00;-1.00;101929;1263;1004102;-73
2023/08/03 01:38:00;;;;;;;12.20;9.40;;;;;;;-128.00;-1.00;-1.00;101846;1262;1004721;-71
2023/08/03 01:40:28;;;;;;;11.50;9.10;;;;;;;-128.00;-1.00;-1.00;102226;1254;1005516;-72
2023/08/03 01:42:55;;;;;;;12.50;10.20;;;;;;;-128.00;-1.00;-1.00;102780;1255;1003910;-72
2023/08/03 01:45:23;;;;;;;13.00;10.50;;;;;;;-128.00;-1.00;-1.00;102539;1255;1005540;-71
2023/08/03 01:47:52;;;;;;;13.00;9.20;;;;;;;-128.00;-1.00;-1.00;101855;1257;1004759;-72
2023/08/03 01:50:20;;;;;;;10.60;9.60;;;;;;;-128.00;-1.00;-1.00;101833;1256;1058370;-72
2023/08/03 01:52:48;;;;;;;10.20;9.30;;;;;;;-128.00;-1.00;-1.00;102067;1256;1003912;-72
2023/08/03 01:55:15;;;;;;;10.40;9.30;;;;;;;-128.00;-1.00;-1.00;102047;1261;1004430;-72
2023/08/03 01:57:44;;;;;;;10.40;9.30;;;;;;;-128.00;-1.00;-1.00;101876;1256;1004342;-71
2023/08/03 02:00:12;;;;;;;10.30;9.30;;;;;;;-128.00;-1.00;-1.00;101817;1262;1004343;-73
2023/08/03 02:02:39;;;;;;;9.10;8.20;;;;;;;-128.00;-1.00;-1.00;101872;1256;1004717;-71
2023/08/03 02:05:08;;;;;;;9.60;8.70;;;;;;;-128.00;-1.00;-1.00;101959;1256;1005873;-73
2023/08/03 02:07:55;;;;;;;11.00;9.60;;;;;;;-128.00;-1.00;-1.00;102047;1256;1004301;-76
2023/08/03 02:10:24;;;;;;;10.20;9.20;;;;;;;-128.00;-1.00;-1.00;102295;1259;1049544;-73
2023/08/03 02:12:52;;;;;;;10.10;8.70;;;;;;;-128.00;-1.00;-1.00;103500;1256;1060322;-74
2023/08/03 02:15:20;;;;;;;9.60;8.50;;;;;;;-128.00;-1.00;-1.00;102408;1255;1004283;-71
2023/08/03 02:17:48;;;;;;;11.40;8.90;;;;;;;-128.00;-1.00;-1.00;101810;1265;1004590;-72
2023/08/03 02:20:16;;;;;;;10.80;8.90;;;;;;;-128.00;-1.00;-1.00;102045;1256;1004912;-74
2023/08/03 02:22:43;;;;;;;9.10;8.10;;;;;;;-128.00;-1.00;-1.00;101992;1261;1004219;-72
2023/08/03 02:25:11;;;;;;;11.80;9.00;;;;;;;-128.00;-1.00;-1.00;101814;1256;1004439;-74
2023/08/03 02:27:39;;;;;;;9.90;8.90;;;;;;;-128.00;-1.00;-1.00;101778;1256;1004965;-73
2023/08/03 02:30:09;;;;;;;9.40;8.60;;;;;;;-128.00;-1.00;-1.00;101903;1260;1005246;-72
2023/08/03 02:32:37;;;;;;;9.80;8.80;;;;;;;-128.00;-1.00;-1.00;101760;1258;1047219;-74
2023/08/03 02:35:06;;;;;;;8.50;7.60;;;;;;;-128.00;-1.00;-1.00;101889;1256;1006940;-73
2023/08/03 02:37:33;;;;;;;8.00;7.30;;;;;;;-128.00;-1.00;-1.00;102054;1256;1062696;-73
2023/08/03 02:40:02;;;;;;;9.00;8.00;;;;;;;-128.00;-1.00;-1.00;102055;1263;1058798;-72
2023/08/03 02:42:31;;;;;;;9.10;8.20;;;;;;;-128.00;-1.00;-1.00;102458;1256;1059296;-72
2023/08/03 02:44:59;;;;;;;8.60;6.90;;;;;;;-128.00;-1.00;-1.00;102721;1261;1004376;-73
2023/08/03 02:47:27;;;;;;;7.50;6.80;;;;;;;-128.00;-1.00;-1.00;102088;1255;1004318;-72
2023/08/03 02:49:55;;;;;;;7.90;6.70;;;;;;;-128.00;-1.00;-1.00;102122;1258;1059589;-72
2023/08/03 02:52:24;;;;;;;9.70;6.20;;;;;;;-128.00;-1.00;-1.00;101858;1261;1057622;-73
2023/08/03 02:54:52;;;;;;;7.80;7.20;;;;;;;-128.00;-1.00;-1.00;101763;1256;1004284;-73
2023/08/03 02:57:21;;;;;;;6.90;6.30;;;;;;;-128.00;-1.00;-1.00;102038;1260;1048791;-71
2023/08/03 02:59:48;;;;;;;7.80;7.00;;;;;;;-128.00;-1.00;-1.00;101962;1256;1004221;-71
2023/08/03 03:02:17;;;;;;;7.20;6.60;;;;;;;-128.00;-1.00;-1.00;101964;1256;1062494;-70
2023/08/03 03:04:45;;;;;;;7.20;6.60;;;;;;;-128.00;-1.00;-1.00;101976;1256;1003570;-70
2023/08/03 03:07:13;;;;;;;9.80;6.70;;;;;;;-128.00;-1.00;-1.00;102125;1259;1005127;-71
2023/08/03 03:09:41;;;;;;;8.30;5.80;;;;;;;-128.00;-1.00;-1.00;101998;1255;1004482;-71
2023/08/03 03:12:09;;;;;;;7.30;6.50;;;;;;;-128.00;-1.00;-1.00;102234;1256;1004408;-71
2023/08/03 03:14:41;;;;;;;6.90;6.30;;;;;;;-128.00;-1.00;-1.00;102414;1258;1059163;-74
2023/08/03 03:17:09;;;;;;;6.60;5.40;;;;;;;-128.00;-1.00;-1.00;102090;1256;1003616;-73
2023/08/03 03:19:37;;;;;;;7.10;5.40;;;;;;;-128.00;-1.00;-1.00;102118;1256;1004342;-70
2023/08/03 03:22:05;;;;;;;6.60;5.80;;;;;;;-128.00;-1.00;-1.00;102152;1257;1005452;-70
2023/08/03 03:24:33;;;;;;;6.50;5.90;;;;;;;-128.00;-1.00;-1.00;103150;1257;1004187;-69
2023/08/03 03:27:01;;;;;;;6.40;5.80;;;;;;;-128.00;-1.00;-1.00;103053;1255;1061782;-71
2023/08/03 03:29:30;;;;;;;6.70;5.40;;;;;;;-128.00;-1.00;-1.00;102395;1256;1057391;-70
2023/08/03 03:31:59;;;;;;;7.20;5.60;;;;;;;-128.00;-1.00;-1.00;102348;1255;1062567;-71
2023/08/03 03:34:32;;;;;;;8.60;5.50;;;;;;;-128.00;-1.00;-1.00;101960;1256;1047623;-71
2023/08/03 03:36:59;;;;;;;6.70;6.00;;;;;;;-128.00;-1.00;-1.00;101995;1255;1004581;-70
2023/08/03 03:39:29;;;;;;;5.60;4.90;;;;;;;-128.00;-1.00;-1.00;101955;1256;1063905;-72
2023/08/03 03:42:00;;;;;;;6.10;5.50;;;;;;;-128.00;-1.00;-1.00;102352;1255;1058696;-72
2023/08/03 03:44:29;;;;;;;6.60;6.00;;;;;;;-128.00;-1.00;-1.00;103288;1256;1059753;-71
2023/08/03 03:46:57;;;;;;;7.40;5.50;;;;;;;-128.00;-1.00;-1.00;102747;1256;1004502;-73
2023/08/03 03:49:27;;;;;;;6.50;5.10;;;;;;;-128.00;-1.00;-1.00;101986;1262;1046864;-72
2023/08/03 03:51:55;;;;;;;5.40;5.00;;;;;;;-128.00;-1.00;-1.00;101918;1256;1004485;-73
2023/08/03 03:54:22;;;;;;;7.30;5.70;;;;;;;-128.00;-1.00;-1.00;101849;1256;1005630;-71
2023/08/03 03:56:50;;;;;;;9.90;6.00;;;;;;;-128.00;-1.00;-1.00;102070;1256;1003553;-71
2023/08/03 03:59:18;;;;;;;5.60;4.70;;;;;;;-128.00;-1.00;-1.00;101756;1255;1004598;-73
2023/08/03 04:01:45;;;;;;;8.50;5.60;;;;;;;-128.00;-1.00;-1.00;101589;1256;1005175;-71
2023/08/03 04:04:13;;;;;;;8.00;5.50;;;;;;;-128.00;-1.00;-1.00;101996;1256;1004960;-69
2023/08/03 04:06:41;;;;;;;5.80;5.20;;;;;;;-128.00;-1.00;-1.00;101688;1260;1005103;-73
2023/08/03 04:09:08;;;;;;;4.80;4.40;;;;;;;-128.00;-1.00;-1.00;102006;1256;1005036;-71
2023/08/03 04:11:36;;;;;;;8.00;5.40;;;;;;;-128.00;-1.00;-1.00;103282;1255;1004886;-72
2023/08/03 04:14:04;;;;;;;5.70;5.10;;;;;;;-128.00;-1.00;-1.00;104725;1255;1003899;-73
2023/08/03 04:16:31;;;;;;;5.90;5.30;;;;;;;-128.00;-1.00;-1.00;103448;1260;1003902;-73
2023/08/03 04:19:00;;;;;;;8.70;6.00;;;;;;;-128.00;-1.00;-1.00;102078;1256;1060291;-74
2023/08/03 04:21:27;;;;;;;6.80;5.10;;;;;;;-128.00;-1.00;-1.00;104869;1254;1003677;-72
2023/08/03 04:23:56;;;;;;;5.80;4.70;;;;;;;-128.00;-1.00;-1.00;105237;1261;1004240;-75
2023/08/03 04:26:23;;;;;;;6.50;5.10;;;;;;;-128.00;-1.00;-1.00;105385;1254;1004224;-74
2023/08/03 04:28:51;;;;;;;6.20;5.40;;;;;;;-128.00;-1.00;-1.00;105101;1255;1003938;-73
2023/08/03 04:31:19;;;;;;;7.50;4.70;;;;;;;-128.00;-1.00;-1.00;105212;1255;1004888;-72
2023/08/03 04:33:49;;;;;;;5.50;5.00;;;;;;;-128.00;-1.00;-1.00;104878;1256;1058844;-73
2023/08/03 04:36:22;;;;;;;5.60;5.10;;;;;;;-128.00;-1.00;-1.00;103543;1261;1047469;-73
2023/08/03 04:38:50;;;;;;;6.80;5.20;;;;;;;-128.00;-1.00;-1.00;104859;1255;1004663;-72
2023/08/03 04:41:20;;;;;;;5.90;5.30;;;;;;;-128.00;-1.00;-1.00;104002;1255;1004465;-72
2023/08/03 04:43:49;;;;;;;5.20;4.80;;;;;;;-128.00;-1.00;-1.00;105156;1255;1057167;-76
2023/08/03 04:46:18;;;;;;;5.80;4.60;;;;;;;-128.00;-1.00;-1.00;105165;1254;1059102;-72
2023/08/03 04:48:47;;;;;;;5.40;4.90;;;;;;;-128.00;-1.00;-1.00;105109;1256;1048539;-74
2023/08/03 04:51:15;;;;;;;6.20;5.60;;;;;;;-128.00;-1.00;-1.00;105103;1256;1004061;-76
2023/08/03 04:53:52;;;;;;;5.50;4.90;;;;;;;-128.00;-1.00;-1.00;105187;1255;1060839;-75
2023/08/03 04:56:22;;;;;;;5.40;4.90;;;;;;;-128.00;-1.00;-1.00;102404;1256;1056302;-74
2023/08/03 04:58:52;;;;;;;5.70;4.60;;;;;;;-128.00;-1.00;-1.00;102040;1256;1062210;-76
2023/08/03 05:01:19;;;;;;;6.50;5.50;;;;;;;-128.00;-1.00;-1.00;102493;1255;1004174;-74
2023/08/03 05:03:47;;;;;;;4.80;4.40;;;;;;;-128.00;-1.00;-1.00;102481;1256;1004884;-70
2023/08/03 05:06:15;;;;;;;6.30;5.30;;;;;;;-128.00;-1.00;-1.00;102198;1256;1004606;-72
2023/08/03 05:08:43;;;;;;;5.60;5.00;;;;;;;-128.00;-1.00;-1.00;102085;1260;1004887;-74
2023/08/03 05:11:11;;;;;;;6.80;6.00;;;;;;;-128.00;-1.00;-1.00;102086;1256;1004858;-71
2023/08/03 05:13:40;;;;;;;5.90;5.20;;;;;;;-128.00;-1.00;-1.00;103382;1255;1048801;-72
2023/08/03 05:16:07;;;;;;;6.00;4.50;;;;;;;-128.00;-1.00;-1.00;103698;1259;1003965;-72
2023/08/03 05:18:35;;;;;;;6.30;5.70;;;;;;;-128.00;-1.00;-1.00;102995;1255;1004574;-73
2023/08/03 05:21:03;;;;;;;7.50;5.00;;;;;;;-128.00;-1.00;-1.00;102277;1255;1004469;-72
2023/08/03 05:23:31;;;;;;;5.20;4.40;;;;;;;-128.00;-1.00;-1.00;101890;1256;1006024;-73
2023/08/03 05:25:58;;;;;;;5.50;5.00;;;;;;;-128.00;-1.00;-1.00;101962;1260;1005148;-72
2023/08/03 05:28:26;;;;;;;8.20;5.20;;;;;;;-128.00;-1.00;-1.00;102096;1261;1006962;-72
2023/08/03 05:30:54;;;;;;;6.60;5.20;;;;;;;-128.00;-1.00;-1.00;102058;1258;1004693;-72
2023/08/03 05:33:21;;;;;;;5.40;5.00;;;;;;;-128.00;-1.00;-1.00;102043;1255;1005023;-73
2023/08/03 05:35:49;;;;;;;6.10;5.10;;;;;;;-128.00;-1.00;-1.00;101907;1260;1004706;-74
2023/08/03 05:38:18;;;;;;;5.70;5.20;;;;;;;-128.00;-1.00;-1.00;102113;1256;1048932;-74
2023/08/03 05:40:45;;;;;;;5.40;4.90;;;;;;;-128.00;-1.00;-1.00;101973;1256;1004036;-77
2023/08/03 05:43:14;;;;;;;5.40;4.90;;;;;;;-128.00;-1.00;-1.00;102366;1255;1005427;-73
2023/08/03 05:45:47;;;;;;;5.80;5.40;;;;;;;-128.00;-1.00;-1.00;102905;1254;1057276;-73
2023/08/03 05:48:19;;;;;;;6.60;4.80;;;;;;;-128.00;-1.00;-1.00;102078;1256;1058814;-74
2023/08/03 05:50:48;;;;;;;4.90;4.40;;;;;;;-128.00;-1.00;-1.00;101906;1255;1049272;-75
2023/08/03 05:53:16;;;;;;;4.80;4.30;;;;;;;-128.00;-1.00;-1.00;101851;1263;1046661;-74
2023/08/03 05:55:46;;;;;;;5.30;4.80;;;;;;;-128.00;-1.00;-1.00;101996;1261;1061256;-77
2023/08/03 05:58:32;;;;;;;5.90;4.50;;;;;;;-128.00;-1.00;-1.00;102155;1256;1059514;-81
2023/08/03 06:01:00;;;;;;;7.90;5.00;;;;;;;-128.00;-1.00;-1.00;102103;1255;1005000;-79
2023/08/03 06:03:27;;;;;;;5.30;4.50;;;;;;;-128.00;-1.00;-1.00;102315;1255;1004298;-79
2023/08/03 06:05:57;;;;;;;4.70;4.30;;;;;;;-128.00;-1.00;-1.00;102182;1261;1008150;-80
2023/08/03 06:08:26;;;;;;;5.10;4.60;;;;;;;-128.00;-1.00;-1.00;102718;1256;1063184;-77
2023/08/03 06:10:55;;;;;;;6.30;4.60;;;;;;;-128.00;-1.00;-1.00;102549;1260;1004848;-79
2023/08/03 06:13:27;;;;;;;5.00;4.60;;;;;;;-128.00;-1.00;-1.00;103286;1255;1058827;-79
2023/08/03 06:15:55;;;;;;;5.60;4.20;;;;;;;-128.00;-1.00;-1.00;104672;1255;1047295;-80
2023/08/03 06:18:23;;;;;;;5.30;4.10;;;;;;;-128.00;-1.00;-1.00;103867;1260;1004604;-81
2023/08/03 06:20:52;;;;;;;4.90;4.40;;;;;;;-128.00;-1.00;-1.00;102132;1256;1003775;-79
2023/08/03 06:23:25;;;;;;;5.10;4.60;;;;;;;-128.00;-1.00;-1.00;102066;1255;1057969;-75
2023/08/03 06:25:53;;;;;;;;;;;;;;;-128.00;-1.00;-1.00;102266;1256;1059049;-78
2023/08/03 06:28:22;;;;;;;4.80;4.40;;;;;;;-128.00;-1.00;-1.00;102450;1261;1049111;-77
2023/08/03 06:30:51;;;;;;;5.70;5.10;;;;;;;-128.00;-1.00;-1.00;102904;1263;1046421;-77
2023/08/03 06:33:23;;;;;;;5.80;4.80;;;;;;;-128.00;-1.00;-1.00;102081;1256;1063895;-77
2023/08/03 06:35:54;;;;;;;6.20;4.80;;;;;;;-128.00;-1.00;-1.00;102008;1261;1057215;-78
2023/08/03 06:38:22;;;;;;;5.90;4.90;;;;;;;-128.00;-1.00;-1.00;101984;1256;1061944;-79
2023/08/03 06:40:50;;;;;;;5.70;5.10;;;;;;;-128.00;-1.00;-1.00;101874;1255;1004415;-78
2023/08/03 06:43:17;;;;;;;5.40;4.90;;;;;;;-128.00;-1.00;-1.00;102234;1255;1005227;-80
2023/08/03 06:45:45;;;;;;;5.30;4.80;;;;;;;-128.00;-1.00;-1.00;103201;1255;1005388;-79
2023/08/03 06:48:14;;;;;;;5.70;5.10;;;;;;;-128.00;-1.00;-1.00;103308;1256;1004856;-80
2023/08/03 06:50:42;;;;;;;5.80;5.20;;;;;;;-128.00;-1.00;-1.00;101934;1256;1062108;-77
2023/08/03 06:53:11;;;;;;;5.70;5.10;;;;;;;-128.00;-1.00;-1.00;102083;1256;1004904;-77
2023/08/03 06:55:38;;;;;;;6.60;5.50;;;;;;;-128.00;-1.00;-1.00;102321;1260;1049603;-80
2023/08/03 06:58:06;;;;;;;5.30;4.80;;;;;;;-128.00;-1.00;-1.00;102335;1261;1005206;-83
2023/08/03 07:00:34;;;;;;;5.40;4.90;;;;;;;-128.00;-1.00;-1.00;102261;1259;1005140;-81
2023/08/03 07:03:01;;;;;;;5.70;5.20;;;;;;;-128.00;-1.00;-1.00;102112;1256;1005142;-79
2023/08/03 07:05:29;;;;;;;5.50;5.00;;;;;;;-128.00;-1.00;-1.00;102089;1260;1004642;-82
2023/08/03 07:07:57;;;;;;;5.10;4.40;;;;;;;-128.00;-1.00;-1.00;102335;1256;1004044;-78
2023/08/03 07:10:24;;;;;;;6.30;5.20;;;;;;;-128.00;-1.00;-1.00;102122;1261;1004691;-78
2023/08/03 07:12:55;;;;;;;5.80;5.30;;;;;;;-128.00;-1.00;-1.00;102796;1260;1056321;-81
2023/08/03 07:15:23;;;;;;;6.70;6.00;;;;;;;-128.00;-1.00;-1.00;103623;1255;1005004;-79
2023/08/03 07:17:50;;;;;;;6.60;6.00;;;;;;;-128.00;-1.00;-1.00;104469;1255;1003724;-81
2023/08/03 07:20:19;;;;;;;5.70;5.20;;;;;;;-128.00;-1.00;-1.00;102210;1264;1004852;-81
2023/08/03 07:22:47;;;;;;;6.60;6.00;;;;;;;-128.00;-1.00;-1.00;102175;1260;1004546;-80
2023/08/03 07:25:15;;;;;;;6.10;5.50;;;;;;;-128.00;-1.00;-1.00;102231;1259;1058342;-80
2023/08/03 07:27:44;;;;;;;6.50;5.90;;;;;;;-128.00;-1.00;-1.00;101990;1256;1004436;-80
2023/08/03 07:30:12;;;;;;;7.40;6.70;;;;;;;-128.00;-1.00;-1.00;102099;1256;1047469;-81
2023/08/03 07:32:40;;;;;;;6.50;5.90;;;;;;;-128.00;-1.00;-1.00;102226;1256;1005026;-81
2023/08/03 07:35:10;;;;;;;6.30;5.60;;;;;;;-128.00;-1.00;-1.00;101994;1256;1063344;-79
2023/08/03 07:37:38;;;;;;;8.70;6.10;;;;;;;-128.00;-1.00;-1.00;102001;1261;1004135;-81
2023/08/03 07:40:07;;;;;;;6.30;5.70;;;;;;;-128.00;-1.00;-1.00;102249;1256;1004965;-80
2023/08/03 07:42:34;;;;;;;6.80;6.10;;;;;;;-128.00;-1.00;-1.00;102224;1256;1046555;-81
2023/08/03 07:45:02;;;;;;;6.60;6.00;;;;;;;-128.00;-1.00;-1.00;102472;1255;1004951;-79
2023/08/03 07:47:31;;;;;;;6.50;5.70;;;;;;;-128.00;-1.00;-1.00;104005;1255;1006317;-79
2023/08/03 07:49:59;;;;;;;6.50;5.90;;;;;;;-128.00;-1.00;-1.00;102565;1256;1058017;-77
2023/08/03 07:52:27;;;;;;;6.70;6.10;;;;;;;-128.00;-1.00;-1.00;101993;1256;1060988;-78
2023/08/03 07:54:55;;;;;;;7.40;6.60;;;;;;;-128.00;-1.00;-1.00;102070;1259;1005841;-79
2023/08/03 07:57:22;;;;;;;6.40;5.80;;;;;;;-128.00;-1.00;-1.00;101950;1256;1005133;-79
2023/08/03 07:59:50;;;;;;;6.40;5.90;;;;;;;-128.00;-1.00;-1.00;101943;1260;1004496;-79
2023/08/03 08:02:17;;;;;;;6.20;5.60;;;;;;;-128.00;-1.00;-1.00;101985;1260;1005037;-80
2023/08/03 08:04:50;;;;;;;6.40;5.80;;;;;;;-128.00;-1.00;-1.00;102089;1257;1004496;-77
2023/08/03 08:07:19;;;;;;;7.90;7.10;;;;;;;-128.00;-1.00;-1.00;102042;1256;1047751;-78
2023/08/03 08:09:46;;;;;;;6.40;5.80;;;;;;;-128.00;-1.00;-1.00;102141;1261;1004858;-78
2023/08/03 08:12:15;;;;;;;7.20;6.60;;;;;;;-128.00;-1.00;-1.00;102833;1255;1003853;-78
2023/08/03 08:14:44;;;;;;;8.00;6.80;;;;;;;-128.00;-1.00;-1.00;103440;1254;1060359;-78
2023/08/03 08:17:11;;;;;;;6.60;6.00;;;;;;;-128.00;-1.00;-1.00;104886;1254;1006123;-81
2023/08/03 08:19:41;;;;;;;7.60;6.20;;;;;;;-128.00;-1.00;-1.00;104438;1259;1048566;-80
2023/08/03 08:22:09;;;;;;;6.60;5.90;;;;;;;-128.00;-1.00;-1.00;102972;1260;1004508;-79
2023/08/03 08:24:41;;;;;;;9.30;6.40;;;;;;;-128.00;-1.00;-1.00;103843;1258;1060647;-79
2023/08/03 08:27:09;;;;;;;7.10;5.80;;;;;;;-128.00;-1.00;-1.00;102348;1256;1056691;-80
2023/08/03 08:29:37;;;;;;;6.60;5.50;;;;;;;-128.00;-1.00;-1.00;102077;1263;1061264;-79
2023/08/03 08:32:06;;;;;;;5.30;4.80;;;;;;;-128.00;-1.00;-1.00;102226;1255;1005151;-79
2023/08/03 08:34:34;;;;;;;6.20;5.60;;;;;;;-128.00;-1.00;-1.00;102264;1261;1049440;-81
2023/08/03 08:37:01;;;;;;;7.80;5.50;;;;;;;-128.00;-1.00;-1.00;102159;1255;1004505;-81
2023/08/03 08:39:29;;;;;;;5.40;5.00;;;;;;;-128.00;-1.00;-1.00;102163;1256;1004537;-83
2023/08/03 08:41:57;;;;;;;5.40;5.00;;;;;;;-128.00;-1.00;-1.00;102774;1255;1005057;-81
2023/08/03 08:44:25;;;;;;;6.20;5.60;;;;;;;-128.00;-1.00;-1.00;103627;1256;1003998;-81
2023/08/03 08:46:52;;;;;;;5.80;5.20;;;;;;;-128.00;-1.00;-1.00;104446;1255;1005206;-78
2023/08/03 08:49:20;;;;;;;6.00;5.10;;;;;;;-128.00;-1.00;-1.00;103181;1260;1005254;-78
2023/08/03 08:51:51;;;;;;;5.80;5.00;;;;;;;-128.00;-1.00;-1.00;102395;1260;1060846;-81
2023/08/03 08:54:32;;;;;;;5.00;4.50;;;;;;;-128.00;-1.00;-1.00;102278;1256;1062336;-84
2023/08/03 08:57:02;;;;;;;5.30;4.80;;;;;;;-128.00;-1.00;-1.00;102090;1259;1050045;-83
2023/08/03 08:59:42;;;;;;;5.50;5.00;;;;;;;-128.00;-1.00;-1.00;102328;1256;1047941;-82
2023/08/03 09:02:10;;;;;;;4.70;4.30;;;;;;;-128.00;-1.00;-1.00;102288;1254;1062194;-80
2023/08/03 09:04:38;;;;;;;6.00;4.80;;;;;;;-128.00;-1.00;-1.00;102176;1254;1004636;-79
2023/08/03 09:07:05;;;;;;;5.00;4.50;;;;;;;-128.00;-1.00;-1.00;101924;1256;1004685;-81
2023/08/03 09:09:35;;;;;;;5.50;5.00;;;;;;;-128.00;-1.00;-1.00;102048;1256;1004842;-80
2023/08/03 09:12:04;;;;;;;4.70;4.30;;;;;;;-128.00;-1.00;-1.00;102227;1256;1047184;-81
2023/08/03 09:15:03;;;;;;;4.50;4.10;;;;;;;-128.00;-1.00;-1.00;102634;1256;1060082;-82
2023/08/03 09:17:31;;;;;;;5.60;4.10;;;;;;;-128.00;-1.00;-1.00;103267;1256;1056693;-78
2023/08/03 09:19:59;;;;;;;6.30;4.10;;;;;;;-128.00;-1.00;-1.00;102423;1255;1005268;-81
2023/08/03 09:22:29;;;;;;;5.00;4.30;;;;;;;-128.00;-1.00;-1.00;102332;1261;1047705;-80
2023/08/03 09:25:09;;;;;;;8.40;7.00;;;;;;;-128.00;-1.00;-1.00;102163;1262;1047396;-81
2023/08/03 09:27:38;;;;;;;4.80;4.40;;;;;;;-128.00;-1.00;-1.00;102435;1255;1062382;-79
2023/08/03 09:30:08;;;;;;;5.20;4.40;;;;;;;-128.00;-1.00;-1.00;103320;1261;1056382;-82
2023/08/03 09:32:39;;;;;;;4.70;4.20;;;;;;;-128.00;-1.00;-1.00;103816;1255;1059126;-81
2023/08/03 09:35:25;;;;;;;4.30;3.90;;;;;;;-128.00;-1.00;-1.00;104477;1255;1047163;-80
2023/08/03 09:37:54;;;;;;;4.00;3.60;;;;;;;-128.00;-1.00;-1.00;105250;1254;1005029;-83
2023/08/03 09:40:23;;;;;;;3.80;3.50;;;;;;;-128.00;-1.00;-1.00;103695;1260;1059737;-81
2023/08/03 09:42:51;;;;;;;3.90;3.60;;;;;;;-128.00;-1.00;-1.00;102456;1255;1060186;-82
2023/08/03 09:45:19;;;;;;;4.10;3.80;;;;;;;-128.00;-1.00;-1.00;103201;1255;1004735;-81
2023/08/03 09:47:50;;;;;;;4.40;4.10;;;;;;;-128.00;-1.00;-1.00;105260;1254;1047497;-81
2023/08/03 09:50:19;;;;;;;4.00;3.70;;;;;;;-128.00;-1.00;-1.00;103300;1261;1049837;-81
2023/08/03 09:52:48;;;;;;;4.50;4.10;;;;;;;-128.00;-1.00;-1.00;102924;1258;1004274;-82
2023/08/03 09:55:23;;;;;;;4.20;3.90;;;;;;;-128.00;-1.00;-1.00;102279;1261;1060574;-83
2023/08/03 09:58:04;;;;;;;3.80;3.40;;;;;;;-128.00;-1.00;-1.00;102653;1259;1059574;-83
2023/08/03 10:00:31;;;;;;;4.00;3.60;;;;;;;-128.00;-1.00;-1.00;102336;1256;1046861;-80
2023/08/03 10:03:09;;;;;;;4.00;3.70;;;;;;;-128.00;-1.00;-1.00;102659;1254;1006031;-80
2023/08/03 10:06:00;;;;;;;4.70;3.40;;;;;;;-128.00;-1.00;-1.00;103428;1263;1059571;-81
2023/08/03 10:08:32;;;;;;;3.30;3.00;;;;;;;-128.00;-1.00;-1.00;103927;1259;1057184;-83
2023/08/03 10:11:03;;;;;;;3.50;3.20;;;;;;;-128.00;-1.00;-1.00;103897;1256;1058701;-81
2023/08/03 10:13:34;;;;;;;3.90;3.60;;;;;;;-128.00;-1.00;-1.00;104105;1254;1047791;-81
2023/08/03 10:16:04;;;;;;;4.00;3.50;;;;;;;-128.00;-1.00;-1.00;105425;1255;1047279;-82
2023/08/03 10:18:33;;;;;;;3.40;3.20;;;;;;;-128.00;-1.00;-1.00;105236;1256;1060472;-82
2023/08/03 10:21:05;;;;;;;3.90;3.30;;;;;;;-128.00;-1.00;-1.00;103492;1256;1059333;-82
2023/08/03 10:23:35;;;;;;;3.40;3.20;;;;;;;-128.00;-1.00;-1.00;103376;1255;1060999;-82
2023/08/03 10:26:04;;;;;;;3.60;3.30;;;;;;;-128.00;-1.00;-1.00;104246;1260;1049801;-82
2023/08/03 10:28:40;;;;;;;3.90;3.50;;;;;;;-128.00;-1.00;-1.00;104295;1254;1004015;-79
2023/08/03 10:31:19;;;;;;;3.40;3.10;;;;;;;-128.00;-1.00;-1.00;102864;1259;1063148;-74
2023/08/03 10:33:49;;;;;;;5.00;3.70;;;;;;;-128.00;-1.00;-1.00;102238;1260;1058818;-74
2023/08/03 10:36:26;;;;;;;3.60;3.30;;;;;;;-128.00;-1.00;-1.00;102228;1260;1005395;-74
2023/08/03 10:38:57;;;;;;;4.20;3.90;;;;;;;-128.00;-1.00;-1.00;102211;1260;1049243;-75
2023/08/03 10:41:30;;;;;;;3.70;3.30;;;;;;;-128.00;-1.00;-1.00;102188;1258;1049712;-71
2023/08/03 10:44:07;;;;;;;4.10;3.70;;;;;;;-128.00;-1.00;-1.00;102443;1260;1060537;-75
2023/08/03 10:46:37;;;;;;;3.80;3.00;;;;;;;-128.00;-1.00;-1.00;104039;1260;1057268;-76
2023/08/03 10:49:18;;;;;;;3.30;2.80;;;;;;;-128.00;-1.00;-1.00;102914;1256;1059766;-75
2023/08/03 10:51:46;;;;;;;3.40;3.20;;;;;;;-128.00;-1.00;-1.00;102133;1256;1047578;-76
2023/08/03 10:54:14;;;;;;;4.10;3.10;;;;;;;-128.00;-1.00;-1.00;102363;1261;1004753;-73
2023/08/03 10:57:07;;;;;;;3.60;2.90;;;;;;;-128.00;-1.00;-1.00;102566;1255;1060274;-77
2023/08/03 10:59:38;;;;;;;4.90;3.30;;;;;;;-128.00;-1.00;-1.00;103723;1256;1060141;-75
2023/08/03 11:02:22;;;;;;;2.90;2.70;;;;;;;-128.00;-1.00;-1.00;103066;1261;1058852;-76
2023/08/03 11:04:51;;;;;;;2.70;2.50;;;;;;;-128.00;-1.00;-1.00;105383;1255;1047581;-77
2023/08/03 11:07:22;;;;;;;5.40;3.30;;;;;;;-128.00;-1.00;-1.00;105346;1254;1046371;-76
2023/08/03 11:09:52;;;;;;;4.90;3.10;;;;;;;-128.00;-1.00;-1.00;105123;1254;1059817;-77
2023/08/03 11:12:22;;;;;;;3.80;3.30;;;;;;;-128.00;-1.00;-1.00;105230;1255;1056477;-76
2023/08/03 11:14:55;;;;;;;3.70;3.20;;;;;;;-128.00;-1.00;-1.00;105249;1259;1059153;-76
2023/08/03 11:17:27;;;;;;;6.80;3.90;;;;;;;-128.00;-1.00;-1.00;104988;1256;1047224;-76
2023/08/03 11:19:55;;;;;;;3.50;3.20;;;;;;;-128.00;-1.00;-1.00;105369;1254;1046898;-76
2023/08/03 11:22:23;;;;;;;3.20;2.90;;;;;;;-128.00;-1.00;-1.00;105221;1261;1005213;-78
2023/08/03 11:24:55;;;;;;;3.90;3.00;;;;;;;-128.00;-1.00;-1.00;105113;1256;1004782;-76